createdAt,value
2019-02-09T00:00:51.494Z,18.80
2019-02-09T00:01:56.337Z,19.32
2019-02-09T00:03:01.372Z,18.45
2019-02-09T00:04:06.372Z,19.62
2019-02-09T00:05:11.689Z,20.32
2019-02-09T00:06:16.537Z,20.62
2019-02-09T00:07:21.382Z,20.45
2019-02-09T00:08:26.452Z,19.73
2019-02-09T00:09:31.621Z,19.77
2019-02-09T00:10:36.508Z,20.70
2019-02-09T00:11:41.331Z,19.77
2019-02-09T00:12:46.332Z,20.32
2019-02-09T00:13:51.683Z,19.55
2019-02-09T00:14:56.635Z,20.60
2019-02-09T00:16:01.380Z,18.82
2019-02-09T00:17:06.385Z,20.37
2019-02-09T00:18:11.356Z,19.87
2019-02-09T00:19:16.166Z,19.52
2019-02-09T00:20:21.344Z,18.32
2019-02-09T00:21:26.114Z,18.57
2019-02-09T00:22:30.929Z,19.20
2019-02-09T00:23:35.963Z,19.57
2019-02-09T00:24:40.753Z,19.32
2019-02-09T00:25:45.599Z,19.62
2019-02-09T00:26:50.471Z,19.75
2019-02-09T00:27:55.225Z,19.40
2019-02-09T00:29:00.069Z,19.30
2019-02-09T00:30:06.535Z,18.80
2019-02-09T00:31:11.328Z,18.70
2019-02-09T00:32:16.148Z,19.23
2019-02-09T00:33:20.921Z,19.98
2019-02-09T00:34:25.758Z,18.67
2019-02-09T00:35:30.994Z,18.07
2019-02-09T00:36:35.764Z,18.92
2019-02-09T00:37:40.538Z,19.40
2019-02-09T00:38:45.300Z,18.25
2019-02-09T00:39:50.064Z,17.90
2019-02-09T00:40:54.859Z,19.00
2019-02-09T00:41:59.696Z,18.82
2019-02-09T00:43:05.012Z,17.55
2019-02-09T00:44:09.905Z,18.62
2019-02-09T00:45:15.405Z,17.65
2019-02-09T00:46:20.233Z,18.85
2019-02-09T00:47:25.028Z,19.12
2019-02-09T00:48:29.886Z,18.77
2019-02-09T00:49:34.686Z,17.48
2019-02-09T00:50:39.575Z,19.15
2019-02-09T00:51:44.516Z,17.32
2019-02-09T00:52:49.303Z,17.70
2019-02-09T00:53:54.161Z,17.60
2019-02-09T00:54:59.036Z,17.35
2019-02-09T00:56:04.116Z,18.87
2019-02-09T00:57:09.044Z,18.67
2019-02-09T00:58:13.964Z,16.57
2019-02-09T00:59:18.888Z,17.37
2019-02-09T01:00:25.328Z,17.60
2019-02-09T01:01:30.248Z,18.48
2019-02-09T01:02:35.245Z,16.15
2019-02-09T01:03:40.013Z,16.65
2019-02-09T01:04:45.012Z,17.77
2019-02-09T01:05:50.044Z,16.70
2019-02-09T01:06:55.093Z,16.40
2019-02-09T01:08:00.225Z,16.75
2019-02-09T01:09:11.064Z,17.50
2019-02-09T01:10:16.340Z,15.95
2019-02-09T01:11:21.309Z,16.57
2019-02-09T01:12:26.077Z,16.57
2019-02-09T01:13:31.361Z,16.42
2019-02-09T01:14:36.254Z,15.98
2019-02-09T01:15:41.156Z,16.02
2019-02-09T01:16:45.865Z,17.57
2019-02-09T01:17:50.747Z,15.70
2019-02-09T01:18:55.696Z,16.52
2019-02-09T01:20:00.451Z,16.45
2019-02-09T01:21:05.484Z,16.20
2019-02-09T01:22:10.384Z,15.48
2019-02-09T01:23:15.153Z,16.27
2019-02-09T01:24:20.125Z,14.43
2019-02-09T01:25:25.167Z,17.27
2019-02-09T01:26:30.016Z,17.07
2019-02-09T01:27:34.900Z,17.87
2019-02-09T01:28:39.756Z,15.10
2019-02-09T01:29:44.598Z,16.12
2019-02-09T01:30:49.425Z,16.02
2019-02-09T01:31:54.313Z,16.12
2019-02-09T01:32:59.417Z,16.55
2019-02-09T01:34:04.210Z,15.93
2019-02-09T01:35:09.540Z,15.20
2019-02-09T01:36:14.417Z,15.93
2019-02-09T01:37:19.210Z,16.02
2019-02-09T01:38:23.943Z,16.60
2019-02-09T01:39:28.932Z,15.85
2019-02-09T01:40:33.927Z,16.32
2019-02-09T01:41:38.809Z,16.95
2019-02-09T01:42:43.652Z,17.02
2019-02-09T01:43:48.552Z,16.35
2019-02-09T01:44:53.440Z,15.65
2019-02-09T01:45:58.216Z,17.62
2019-02-09T01:47:03.101Z,17.73
2019-02-09T01:48:08.029Z,16.42
2019-02-09T01:49:13.087Z,16.37
2019-02-09T01:50:18.612Z,15.90
2019-02-09T01:51:23.564Z,16.57
2019-02-09T01:52:28.429Z,16.57
2019-02-09T01:53:33.224Z,17.23
2019-02-09T01:54:38.072Z,17.23
2019-02-09T01:55:42.952Z,17.10
2019-02-09T01:56:47.838Z,16.75
2019-02-09T01:57:52.729Z,15.70
2019-02-09T01:58:57.564Z,16.42
2019-02-09T02:00:10.240Z,16.30
2019-02-09T02:01:09.220Z,17.00
2019-02-09T02:02:13.991Z,17.00
2019-02-09T02:03:18.743Z,17.17
2019-02-09T02:04:23.677Z,16.80
2019-02-09T02:05:28.925Z,17.35
2019-02-09T02:06:33.703Z,17.15
2019-02-09T02:07:38.512Z,16.82
2019-02-09T02:08:43.401Z,16.27
2019-02-09T02:09:48.340Z,16.90
2019-02-09T02:10:53.301Z,17.75
2019-02-09T02:11:58.248Z,17.17
2019-02-09T02:13:03.633Z,17.45
2019-02-09T02:14:08.760Z,17.65
2019-02-09T02:15:16.553Z,17.60
2019-02-09T02:16:21.314Z,17.12
2019-02-09T02:17:26.182Z,17.45
2019-02-09T02:18:31.260Z,17.02
2019-02-09T02:19:36.145Z,18.65
2019-02-09T02:20:41.049Z,16.80
2019-02-09T02:21:45.988Z,17.75
2019-02-09T02:22:51.065Z,18.32
2019-02-09T02:23:55.917Z,17.70
2019-02-09T02:25:00.744Z,18.75
2019-02-09T02:26:05.735Z,19.15
2019-02-09T02:27:10.623Z,17.30
2019-02-09T02:28:15.418Z,18.23
2019-02-09T02:29:20.260Z,18.35
2019-02-09T02:30:27.369Z,19.07
2019-02-09T02:31:32.258Z,18.30
2019-02-09T02:32:37.113Z,18.15
2019-02-09T02:33:41.976Z,18.15
2019-02-09T02:34:46.960Z,19.27
2019-02-09T02:35:51.824Z,18.23
2019-02-09T02:36:56.583Z,18.75
2019-02-09T02:38:01.465Z,17.73
2019-02-09T02:39:10.401Z,17.92
2019-02-09T02:40:16.304Z,18.40
2019-02-09T02:41:21.216Z,17.60
2019-02-09T02:42:26.076Z,18.48
2019-02-09T02:43:30.898Z,17.60
2019-02-09T02:44:35.812Z,17.87
2019-02-09T02:45:40.761Z,17.00
2019-02-09T02:46:45.594Z,18.10
2019-02-09T02:47:50.488Z,17.85
2019-02-09T02:48:55.389Z,18.17
2019-02-09T02:50:00.304Z,18.17
2019-02-09T02:51:05.596Z,18.32
2019-02-09T02:52:10.352Z,17.60
2019-02-09T02:53:16.522Z,16.62
2019-02-09T02:54:21.524Z,18.42
2019-02-09T02:55:27.543Z,18.17
2019-02-09T02:56:32.408Z,18.73
2019-02-09T02:57:37.265Z,17.23
2019-02-09T02:58:42.009Z,17.98
2019-02-09T02:59:46.884Z,17.92
2019-02-09T03:00:51.750Z,17.35
2019-02-09T03:01:56.633Z,19.10
2019-02-09T03:03:01.640Z,17.65
2019-02-09T03:04:06.709Z,17.55
2019-02-09T03:05:13.873Z,17.45
2019-02-09T03:06:18.744Z,18.52
2019-02-09T03:07:23.524Z,19.10
2019-02-09T03:08:28.429Z,17.73
2019-02-09T03:09:33.272Z,18.55
2019-02-09T03:10:38.032Z,19.25
2019-02-09T03:11:42.837Z,18.57
2019-02-09T03:12:47.958Z,18.70
2019-02-09T03:13:52.904Z,17.42
2019-02-09T03:14:57.713Z,18.32
2019-02-09T03:16:02.720Z,16.48
2019-02-09T03:17:07.566Z,18.77
2019-02-09T03:18:12.477Z,18.37
2019-02-09T03:19:19.164Z,18.52
2019-02-09T03:20:24.094Z,17.00
2019-02-09T03:21:28.908Z,18.42
2019-02-09T03:22:33.725Z,17.30
2019-02-09T03:23:38.508Z,16.75
2019-02-09T03:24:43.388Z,17.77
2019-02-09T03:25:48.330Z,17.62
2019-02-09T03:26:53.066Z,18.25
2019-02-09T03:27:57.941Z,19.12
2019-02-09T03:29:02.848Z,18.25
2019-02-09T03:30:08.993Z,19.02
2019-02-09T03:31:13.743Z,17.85
2019-02-09T03:32:18.709Z,16.97
2019-02-09T03:33:23.557Z,18.15
2019-02-09T03:34:28.336Z,17.73
2019-02-09T03:35:33.132Z,18.60
2019-02-09T03:36:38.020Z,17.30
2019-02-09T03:37:43.037Z,17.48
2019-02-09T03:38:51.107Z,17.17
2019-02-09T03:39:56.024Z,17.15
2019-02-09T03:41:00.933Z,16.62
2019-02-09T03:42:05.803Z,17.87
2019-02-09T03:43:10.743Z,16.62
2019-02-09T03:44:15.641Z,17.52
2019-02-09T03:45:39.492Z,18.02
2019-02-09T03:46:44.381Z,17.42
2019-02-09T03:47:50.156Z,17.25
2019-02-09T03:48:55.005Z,16.87
2019-02-09T03:49:59.942Z,17.17
2019-02-09T03:51:04.989Z,17.17
2019-02-09T03:52:09.832Z,17.35
2019-02-09T03:53:14.905Z,18.25
2019-02-09T03:54:19.779Z,17.55
2019-02-09T03:55:25.009Z,17.75
2019-02-09T03:56:29.873Z,17.60
2019-02-09T03:57:34.721Z,17.00
2019-02-09T03:58:39.529Z,17.25
2019-02-09T03:59:44.471Z,16.67
2019-02-09T04:00:55.153Z,16.77
2019-02-09T04:01:56.140Z,16.85
2019-02-09T04:03:01.809Z,16.20
2019-02-09T04:04:06.872Z,17.48
2019-02-09T04:05:12.068Z,16.23
2019-02-09T04:06:16.928Z,16.27
2019-02-09T04:07:21.800Z,16.30
2019-02-09T04:08:26.710Z,16.77
2019-02-09T04:09:31.516Z,16.23
2019-02-09T04:10:36.583Z,16.97
2019-02-09T04:11:41.596Z,16.27
2019-02-09T04:12:46.519Z,16.82
2019-02-09T04:13:51.321Z,17.07
2019-02-09T04:14:57.182Z,16.32
2019-02-09T04:16:02.179Z,17.05
2019-02-09T04:17:07.118Z,17.37
2019-02-09T04:18:12.008Z,16.55
2019-02-09T04:19:16.894Z,16.27
2019-02-09T04:20:22.631Z,16.77
2019-02-09T04:21:27.393Z,17.10
2019-02-09T04:22:32.258Z,16.82
2019-02-09T04:23:37.144Z,15.88
2019-02-09T04:24:42.044Z,15.85
2019-02-09T04:25:47.134Z,15.85
2019-02-09T04:26:51.893Z,16.75
2019-02-09T04:27:56.780Z,16.52
2019-02-09T04:29:01.564Z,16.73
2019-02-09T04:30:10.512Z,16.32
2019-02-09T04:31:15.741Z,15.63
2019-02-09T04:32:20.607Z,15.38
2019-02-09T04:33:25.450Z,16.30
2019-02-09T04:34:30.313Z,15.65
2019-02-09T04:35:35.302Z,15.75
2019-02-09T04:36:40.028Z,15.68
2019-02-09T04:37:45.043Z,16.30
2019-02-09T04:38:53.008Z,16.00
2019-02-09T04:39:57.824Z,16.35
2019-02-09T04:41:02.737Z,15.53
2019-02-09T04:42:07.916Z,15.08
2019-02-09T04:43:12.717Z,15.15
2019-02-09T04:44:17.495Z,15.90
2019-02-09T04:45:22.483Z,15.23
2019-02-09T04:46:27.402Z,15.08
2019-02-09T04:47:32.273Z,15.03
2019-02-09T04:48:37.028Z,15.78
2019-02-09T04:49:41.888Z,15.95
2019-02-09T04:50:46.793Z,15.30
2019-02-09T04:51:51.629Z,15.80
2019-02-09T04:52:56.504Z,15.30
2019-02-09T04:54:01.369Z,14.53
2019-02-09T04:55:08.927Z,14.93
2019-02-09T04:56:13.756Z,14.60
2019-02-09T04:57:18.605Z,14.85
2019-02-09T04:58:23.488Z,14.25
2019-02-09T04:59:28.402Z,14.55
2019-02-09T05:00:33.470Z,13.90
2019-02-09T05:01:38.401Z,14.15
2019-02-09T05:02:43.386Z,13.98
2019-02-09T05:03:50.981Z,14.55
2019-02-09T05:04:55.825Z,13.85
2019-02-09T05:06:00.894Z,14.05
2019-02-09T05:07:05.761Z,13.53
2019-02-09T05:08:10.559Z,13.62
2019-02-09T05:09:15.504Z,13.35
2019-02-09T05:10:20.938Z,13.70
2019-02-09T05:11:25.767Z,13.68
2019-02-09T05:12:30.652Z,14.55
2019-02-09T05:13:35.431Z,14.63
2019-02-09T05:14:40.372Z,12.85
2019-02-09T05:15:45.212Z,12.45
2019-02-09T05:16:50.024Z,14.15
2019-02-09T05:17:55.036Z,13.05
2019-02-09T05:18:59.933Z,13.50
2019-02-09T05:20:05.516Z,13.93
2019-02-09T05:21:10.547Z,13.50
2019-02-09T05:22:15.389Z,13.72
2019-02-09T05:23:20.276Z,13.48
2019-02-09T05:24:25.065Z,13.48
2019-02-09T05:25:30.068Z,13.03
2019-02-09T05:26:34.955Z,12.65
2019-02-09T05:27:39.900Z,12.03
2019-02-09T05:28:44.725Z,14.30
2019-02-09T05:29:49.851Z,12.55
2019-02-09T05:30:54.739Z,13.48
2019-02-09T05:31:59.670Z,12.50
2019-02-09T05:33:04.607Z,13.40
2019-02-09T05:34:12.356Z,13.58
2019-02-09T05:35:17.437Z,13.10
2019-02-09T05:36:22.384Z,11.95
2019-02-09T05:37:27.351Z,12.80
2019-02-09T05:38:32.135Z,13.78
2019-02-09T05:39:36.970Z,13.15
2019-02-09T05:40:41.761Z,13.43
2019-02-09T05:41:46.702Z,13.55
2019-02-09T05:42:51.557Z,12.85
2019-02-09T05:43:56.325Z,13.50
2019-02-09T05:45:01.071Z,13.43
2019-02-09T05:46:06.248Z,13.43
2019-02-09T05:47:11.184Z,12.78
2019-02-09T05:48:16.070Z,13.55
2019-02-09T05:49:20.974Z,13.68
2019-02-09T05:50:26.239Z,11.80
2019-02-09T05:51:31.349Z,14.50
2019-02-09T05:52:36.246Z,13.78
2019-02-09T05:53:41.010Z,14.20
2019-02-09T05:54:45.872Z,13.68
2019-02-09T05:55:50.944Z,13.62
2019-02-09T05:56:55.865Z,13.00
2019-02-09T05:58:00.703Z,13.45
2019-02-09T05:59:07.410Z,12.55
2019-02-09T06:00:16.471Z,13.93
2019-02-09T06:01:21.354Z,13.95
2019-02-09T06:02:26.299Z,13.85
2019-02-09T06:03:31.191Z,13.30
2019-02-09T06:04:35.997Z,13.62
2019-02-09T06:05:40.993Z,12.45
2019-02-09T06:06:45.840Z,12.95
2019-02-09T06:07:50.883Z,13.70
2019-02-09T06:08:55.716Z,13.95
2019-02-09T06:10:00.569Z,13.43
2019-02-09T06:11:05.396Z,13.83
2019-02-09T06:12:13.217Z,14.18
2019-02-09T06:13:18.040Z,13.65
2019-02-09T06:14:22.839Z,13.18
2019-02-09T06:15:27.825Z,13.85
2019-02-09T06:16:32.713Z,13.15
2019-02-09T06:17:37.718Z,12.60
2019-02-09T06:18:42.525Z,12.70
2019-02-09T06:19:47.328Z,12.33
2019-02-09T06:20:52.352Z,12.70
2019-02-09T06:21:57.252Z,12.30
2019-02-09T06:23:02.359Z,12.65
2019-02-09T06:24:07.420Z,12.98
2019-02-09T06:25:12.577Z,12.43
2019-02-09T06:26:17.512Z,12.68
2019-02-09T06:27:22.493Z,12.60
2019-02-09T06:28:27.420Z,11.45
2019-02-09T06:29:32.813Z,11.50
2019-02-09T06:30:37.827Z,12.03
2019-02-09T06:31:42.729Z,12.47
2019-02-09T06:32:47.507Z,11.68
2019-02-09T06:33:52.420Z,11.93
2019-02-09T06:34:57.319Z,11.75
2019-02-09T06:36:02.112Z,11.70
2019-02-09T06:37:06.956Z,12.50
2019-02-09T06:38:12.197Z,11.53
2019-02-09T06:39:17.080Z,11.03
2019-02-09T06:40:22.254Z,10.88
2019-02-09T06:41:27.294Z,10.38
2019-02-09T06:42:32.246Z,11.08
2019-02-09T06:43:37.085Z,10.72
2019-02-09T06:44:42.005Z,10.55
2019-02-09T06:45:47.037Z,11.73
2019-02-09T06:46:51.921Z,12.10
2019-02-09T06:48:26.219Z,10.53
2019-02-09T06:49:31.164Z,11.35
2019-02-09T06:50:36.134Z,11.95
2019-02-09T06:51:41.098Z,11.53
2019-02-09T06:52:46.135Z,12.43
2019-02-09T06:53:51.182Z,12.65
2019-02-09T06:54:56.044Z,11.68
2019-02-09T06:56:00.946Z,13.15
2019-02-09T06:57:06.141Z,12.13
2019-02-09T06:58:11.131Z,12.07
2019-02-09T06:59:16.025Z,13.00
2019-02-09T07:00:21.476Z,13.25
2019-02-09T07:01:26.776Z,12.93
2019-02-09T07:02:32.026Z,13.45
2019-02-09T07:03:37.206Z,13.03
2019-02-09T07:04:42.153Z,13.05
2019-02-09T07:05:47.257Z,12.43
2019-02-09T07:06:52.554Z,13.43
2019-02-09T07:07:58.460Z,12.75
2019-02-09T07:09:04.323Z,11.20
2019-02-09T07:10:12.060Z,12.20
2019-02-09T07:11:17.121Z,12.05
2019-02-09T07:12:22.144Z,12.60
2019-02-09T07:13:27.165Z,12.20
2019-02-09T07:14:32.228Z,12.75
2019-02-09T07:15:38.245Z,12.73
2019-02-09T07:16:43.381Z,12.18
2019-02-09T07:17:48.517Z,12.55
2019-02-09T07:18:53.460Z,12.35
2019-02-09T07:19:58.364Z,13.20
2019-02-09T07:21:03.307Z,13.25
2019-02-09T07:22:08.232Z,13.25
2019-02-09T07:23:13.256Z,12.98
2019-02-09T07:24:18.454Z,13.10
2019-02-09T07:25:23.710Z,13.72
2019-02-09T07:26:28.762Z,12.47
2019-02-09T07:27:33.641Z,12.93
2019-02-09T07:28:38.549Z,13.58
2019-02-09T07:29:43.532Z,13.05
2019-02-09T07:30:48.588Z,14.58
2019-02-09T07:31:56.570Z,13.90
2019-02-09T07:33:01.457Z,13.55
2019-02-09T07:34:06.697Z,12.55
2019-02-09T07:35:13.077Z,13.75
2019-02-09T07:36:18.055Z,14.28
2019-02-09T07:37:23.177Z,14.23
2019-02-09T07:38:28.424Z,14.43
2019-02-09T07:39:33.252Z,14.50
2019-02-09T07:40:38.209Z,14.25
2019-02-09T07:41:43.288Z,14.78
2019-02-09T07:42:48.401Z,13.90
2019-02-09T07:43:53.404Z,14.65
2019-02-09T07:44:58.442Z,15.13
2019-02-09T07:46:03.727Z,15.35
2019-02-09T07:47:08.924Z,14.90
2019-02-09T07:48:13.964Z,15.60
2019-02-09T07:49:18.771Z,16.95
2019-02-09T07:50:24.950Z,16.82
2019-02-09T07:51:29.936Z,16.27
2019-02-09T07:52:34.816Z,15.98
2019-02-09T07:53:39.737Z,15.90
2019-02-09T07:54:44.736Z,16.05
2019-02-09T07:55:49.580Z,15.48
2019-02-09T07:56:54.703Z,15.43
2019-02-09T07:57:59.652Z,16.42
2019-02-09T07:59:05.061Z,15.28
2019-02-09T08:00:31.521Z,15.75
2019-02-09T08:01:36.558Z,15.70
2019-02-09T08:02:41.592Z,15.28
2019-02-09T08:03:46.408Z,16.07
2019-02-09T08:04:51.372Z,16.42
2019-02-09T08:05:56.303Z,16.23
2019-02-09T08:07:01.418Z,16.27
2019-02-09T08:08:06.783Z,15.75
2019-02-09T08:09:13.661Z,16.40
2019-02-09T08:10:20.828Z,16.27
2019-02-09T08:11:26.059Z,16.67
2019-02-09T08:12:31.005Z,16.97
2019-02-09T08:13:36.093Z,16.85
2019-02-09T08:14:41.187Z,17.85
2019-02-09T08:15:46.317Z,15.78
2019-02-09T08:16:51.187Z,17.17
2019-02-09T08:17:55.984Z,17.32
2019-02-09T08:19:01.039Z,18.60
2019-02-09T08:20:07.066Z,17.98
2019-02-09T08:21:12.228Z,17.12
2019-02-09T08:22:17.014Z,17.48
2019-02-09T08:23:22.063Z,16.65
2019-02-09T08:24:26.993Z,17.95
2019-02-09T08:25:34.160Z,17.60
2019-02-09T08:26:39.173Z,16.55
2019-02-09T08:27:44.385Z,17.25
2019-02-09T08:28:49.445Z,17.27
2019-02-09T08:29:54.612Z,17.90
2019-02-09T08:30:59.578Z,17.75
2019-02-09T08:32:12.260Z,16.90
2019-02-09T08:33:12.240Z,16.97
2019-02-09T08:34:20.248Z,16.57
2019-02-09T08:35:25.560Z,16.45
2019-02-09T08:36:30.438Z,16.60
2019-02-09T08:37:35.265Z,17.42
2019-02-09T08:38:40.685Z,17.48
2019-02-09T08:39:46.657Z,17.62
2019-02-09T08:40:51.792Z,16.37
2019-02-09T08:41:56.695Z,18.00
2019-02-09T08:43:01.652Z,17.45
2019-02-09T08:44:06.896Z,17.57
2019-02-09T08:45:16.521Z,18.25
2019-02-09T08:46:21.604Z,17.60
2019-02-09T08:47:26.538Z,17.50
2019-02-09T08:48:31.596Z,16.30
2019-02-09T08:49:36.812Z,17.98
2019-02-09T08:50:45.135Z,16.60
2019-02-09T08:51:50.045Z,17.10
2019-02-09T08:52:55.054Z,16.17
2019-02-09T08:54:00.207Z,16.23
2019-02-09T08:55:06.083Z,16.97
2019-02-09T08:56:11.150Z,15.80
2019-02-09T08:57:16.176Z,17.05
2019-02-09T08:58:21.120Z,16.07
2019-02-09T08:59:26.259Z,16.62
2019-02-09T09:00:32.453Z,16.40
2019-02-09T09:01:37.284Z,17.48
2019-02-09T09:02:42.375Z,16.93
2019-02-09T09:03:47.659Z,16.70
2019-02-09T09:04:52.736Z,16.32
2019-02-09T09:05:58.193Z,17.42
2019-02-09T09:07:03.321Z,16.52
2019-02-09T09:08:08.441Z,15.43
2019-02-09T09:09:13.948Z,16.35
2019-02-09T09:10:20.285Z,16.32
2019-02-09T09:11:25.262Z,15.93
2019-02-09T09:12:30.370Z,15.85
2019-02-09T09:13:35.192Z,15.58
2019-02-09T09:14:39.965Z,16.37
2019-02-09T09:15:56.080Z,18.05
2019-02-09T09:17:01.108Z,15.63
2019-02-09T09:18:06.529Z,16.30
2019-02-09T09:19:11.433Z,16.45
2019-02-09T09:20:25.227Z,15.23
2019-02-09T09:21:30.228Z,15.38
2019-02-09T09:22:35.247Z,15.28
2019-02-09T09:23:40.161Z,15.25
2019-02-09T09:24:45.113Z,16.42
2019-02-09T09:25:54.829Z,16.10
2019-02-09T09:26:59.829Z,15.98
2019-02-09T09:28:04.828Z,16.60
2019-02-09T09:29:09.877Z,16.20
2019-02-09T09:30:17.650Z,16.62
2019-02-09T09:31:22.798Z,15.70
2019-02-09T09:32:28.847Z,16.75
2019-02-09T09:33:33.905Z,15.80
2019-02-09T09:34:38.881Z,16.62
2019-02-09T09:35:43.993Z,16.10
2019-02-09T09:36:48.849Z,16.77
2019-02-09T09:37:53.947Z,15.45
2019-02-09T09:38:58.889Z,16.15
2019-02-09T09:40:04.184Z,17.15
2019-02-09T09:41:09.235Z,15.93
2019-02-09T09:42:14.341Z,17.05
2019-02-09T09:43:19.613Z,16.52
2019-02-09T09:44:24.468Z,16.23
2019-02-09T09:45:31.753Z,15.18
2019-02-09T09:46:36.697Z,14.87
2019-02-09T09:47:41.536Z,17.27
2019-02-09T09:48:46.608Z,16.87
2019-02-09T09:49:51.598Z,15.85
2019-02-09T09:50:56.570Z,17.25
2019-02-09T09:52:01.431Z,16.80
2019-02-09T09:53:06.809Z,16.85
2019-02-09T09:54:11.729Z,16.30
2019-02-09T09:55:16.972Z,15.65
2019-02-09T09:56:21.879Z,16.67
2019-02-09T09:57:26.713Z,15.93
2019-02-09T09:58:31.932Z,15.30
2019-02-09T09:59:36.945Z,14.43
2019-02-09T10:00:42.040Z,16.70
2019-02-09T10:01:47.123Z,16.67
2019-02-09T10:02:52.295Z,16.45
2019-02-09T10:03:57.420Z,16.52
2019-02-09T10:05:04.300Z,16.82
2019-02-09T10:06:09.191Z,15.72
2019-02-09T10:07:14.121Z,16.97
2019-02-09T10:08:19.062Z,15.65
2019-02-09T10:09:23.990Z,16.50
2019-02-09T10:10:29.152Z,16.55
2019-02-09T10:11:34.105Z,16.95
2019-02-09T10:12:39.113Z,16.75
2019-02-09T10:13:44.303Z,17.80
2019-02-09T10:14:49.622Z,16.32
2019-02-09T10:15:54.688Z,16.42
2019-02-09T10:16:59.784Z,16.23
2019-02-09T10:18:10.859Z,15.60
2019-02-09T10:19:18.051Z,16.52
2019-02-09T10:20:24.473Z,16.52
2019-02-09T10:21:29.541Z,15.95
2019-02-09T10:22:34.499Z,16.97
2019-02-09T10:23:39.424Z,16.35
2019-02-09T10:24:44.556Z,17.65
2019-02-09T10:25:49.640Z,17.05
2019-02-09T10:26:54.825Z,17.23
2019-02-09T10:27:59.785Z,16.42
2019-02-09T10:29:04.824Z,17.48
2019-02-09T10:30:13.380Z,16.30
2019-02-09T10:31:18.247Z,15.28
2019-02-09T10:32:23.093Z,18.37
2019-02-09T10:33:28.029Z,17.17
2019-02-09T10:34:33.114Z,17.37
2019-02-09T10:35:38.221Z,16.97
2019-02-09T10:36:43.167Z,16.10
2019-02-09T10:37:48.246Z,17.82
2019-02-09T10:38:53.141Z,17.95
2019-02-09T10:39:58.145Z,16.27
2019-02-09T10:41:03.092Z,15.20
2019-02-09T10:42:08.376Z,16.25
2019-02-09T10:43:13.354Z,15.43
2019-02-09T10:44:18.290Z,17.15
2019-02-09T10:45:24.846Z,17.30
2019-02-09T10:46:30.204Z,17.37
2019-02-09T10:47:35.605Z,17.00
2019-02-09T10:48:40.508Z,16.62
2019-02-09T10:49:45.333Z,17.73
2019-02-09T10:50:50.307Z,16.67
2019-02-09T10:51:55.642Z,17.32
2019-02-09T10:53:00.933Z,16.12
2019-02-09T10:54:06.452Z,16.67
2019-02-09T10:55:11.804Z,16.97
2019-02-09T10:56:16.815Z,18.02
2019-02-09T10:57:21.924Z,18.23
2019-02-09T10:58:27.055Z,17.00
2019-02-09T10:59:31.884Z,17.75
2019-02-09T11:00:48.476Z,16.48
2019-02-09T11:01:53.506Z,16.97
2019-02-09T11:02:58.806Z,17.25
2019-02-09T11:04:03.968Z,16.27
2019-02-09T11:05:10.292Z,17.00
2019-02-09T11:06:15.242Z,16.95
2019-02-09T11:07:20.300Z,17.57
2019-02-09T11:08:25.357Z,15.00
2019-02-09T11:09:30.449Z,16.00
2019-02-09T11:10:35.742Z,17.05
2019-02-09T11:11:40.935Z,15.58
2019-02-09T11:12:45.908Z,15.80
2019-02-09T11:13:51.078Z,16.35
2019-02-09T11:14:56.314Z,15.35
2019-02-09T11:16:01.669Z,14.95
2019-02-09T11:17:06.865Z,16.07
2019-02-09T11:18:12.137Z,14.45
2019-02-09T11:19:17.204Z,15.18
2019-02-09T11:20:22.403Z,17.10
2019-02-09T11:21:27.469Z,15.40
2019-02-09T11:22:32.611Z,15.93
2019-02-09T11:23:37.807Z,16.55
2019-02-09T11:24:42.885Z,15.32
2019-02-09T11:25:47.965Z,14.47
2019-02-09T11:26:53.239Z,14.75
2019-02-09T11:27:58.358Z,14.20
2019-02-09T11:29:03.335Z,14.50
2019-02-09T11:30:11.640Z,13.28
2019-02-09T11:31:16.934Z,14.60
2019-02-09T11:32:21.928Z,14.38
2019-02-09T11:33:26.796Z,13.93
2019-02-09T11:34:31.677Z,13.98
2019-02-09T11:35:36.546Z,14.18
2019-02-09T11:36:41.730Z,13.53
2019-02-09T11:37:46.937Z,13.90
2019-02-09T11:38:52.112Z,15.48
2019-02-09T11:39:57.066Z,15.25
2019-02-09T11:41:02.024Z,13.83
2019-02-09T11:42:07.270Z,14.70
2019-02-09T11:43:12.108Z,14.68
2019-02-09T11:44:16.956Z,14.40
2019-02-09T11:45:24.644Z,14.50
2019-02-09T11:46:29.535Z,13.85
2019-02-09T11:47:34.488Z,14.38
2019-02-09T11:48:39.578Z,13.58
2019-02-09T11:49:44.455Z,13.18
2019-02-09T11:50:49.452Z,13.45
2019-02-09T11:51:54.465Z,13.32
2019-02-09T11:52:59.500Z,12.82
2019-02-09T11:54:04.939Z,11.95
2019-02-09T11:55:10.503Z,12.40
2019-02-09T11:56:15.413Z,12.25
2019-02-09T11:57:20.351Z,14.10
2019-02-09T11:58:25.416Z,14.10
2019-02-09T11:59:30.300Z,12.40
2019-02-09T12:00:46.963Z,12.00
2019-02-09T12:01:52.080Z,12.25
2019-02-09T12:03:02.957Z,13.40
2019-02-09T12:04:03.841Z,13.55
2019-02-09T12:05:09.061Z,12.10
2019-02-09T12:06:14.313Z,12.85
2019-02-09T12:07:19.309Z,12.85
2019-02-09T12:08:24.196Z,13.43
2019-02-09T12:09:29.235Z,13.18
2019-02-09T12:10:34.266Z,13.72
2019-02-09T12:11:39.270Z,14.03
2019-02-09T12:12:44.350Z,13.85
2019-02-09T12:13:55.237Z,12.78
2019-02-09T12:14:55.847Z,15.63
2019-02-09T12:16:01.003Z,13.10
2019-02-09T12:17:06.500Z,15.03
2019-02-09T12:18:11.714Z,14.80
2019-02-09T12:19:16.585Z,13.50
2019-02-09T12:20:21.825Z,14.75
2019-02-09T12:21:26.712Z,12.30
2019-02-09T12:22:31.711Z,11.90
2019-02-09T12:23:36.764Z,13.43
2019-02-09T12:24:41.971Z,14.33
2019-02-09T12:25:47.141Z,13.93
2019-02-09T12:26:52.152Z,12.37
2019-02-09T12:27:57.045Z,12.07
2019-02-09T12:29:04.974Z,15.30
2019-02-09T12:30:12.001Z,14.63
2019-02-09T12:31:16.999Z,14.38
2019-02-09T12:32:21.792Z,13.45
2019-02-09T12:33:26.698Z,15.15
2019-02-09T12:34:31.697Z,14.98
2019-02-09T12:35:36.901Z,15.55
2019-02-09T12:36:42.192Z,14.93
2019-02-09T12:37:47.124Z,14.68
2019-02-09T12:38:52.114Z,13.75
2019-02-09T12:39:57.066Z,13.65
2019-02-09T12:41:01.936Z,13.72
2019-02-09T12:42:07.176Z,12.50
2019-02-09T12:43:12.157Z,14.58
2019-02-09T12:44:17.134Z,13.90
2019-02-09T12:45:22.974Z,13.78
2019-02-09T12:46:27.885Z,13.85
2019-02-09T12:47:33.170Z,15.88
2019-02-09T12:48:38.039Z,13.93
2019-02-09T12:49:42.832Z,13.85
2019-02-09T12:50:47.706Z,16.35
2019-02-09T12:51:52.623Z,15.25
2019-02-09T12:52:58.179Z,14.83
2019-02-09T12:54:03.052Z,16.25
2019-02-09T12:55:08.217Z,14.20
2019-02-09T12:56:13.186Z,14.38
2019-02-09T12:57:18.262Z,14.20
2019-02-09T12:58:23.297Z,15.45
2019-02-09T12:59:28.103Z,15.32
2019-02-09T13:00:36.819Z,15.30
2019-02-09T13:01:41.695Z,15.43
2019-02-09T13:02:46.686Z,14.28
2019-02-09T13:03:51.642Z,15.05
2019-02-09T13:04:56.553Z,13.88
2019-02-09T13:06:01.567Z,14.50
2019-02-09T13:07:06.403Z,14.33
2019-02-09T13:08:11.401Z,16.02
2019-02-09T13:09:16.328Z,15.83
2019-02-09T13:10:21.528Z,16.73
2019-02-09T13:11:26.592Z,15.60
2019-02-09T13:12:31.469Z,15.50
2019-02-09T13:13:36.454Z,15.95
2019-02-09T13:14:41.401Z,14.60
2019-02-09T13:15:46.444Z,15.30
2019-02-09T13:16:51.281Z,15.08
2019-02-09T13:17:56.178Z,15.65
2019-02-09T13:19:01.086Z,15.80
2019-02-09T13:20:09.327Z,14.93
2019-02-09T13:21:14.363Z,15.85
2019-02-09T13:22:19.333Z,15.75
2019-02-09T13:23:24.360Z,15.20
2019-02-09T13:24:29.201Z,13.70
2019-02-09T13:25:34.279Z,14.00
2019-02-09T13:26:39.153Z,13.43
2019-02-09T13:27:44.273Z,15.45
2019-02-09T13:28:49.112Z,15.63
2019-02-09T13:29:53.953Z,15.15
2019-02-09T13:31:00.043Z,13.75
2019-02-09T13:32:05.081Z,14.50
2019-02-09T13:33:24.297Z,15.60
2019-02-09T13:34:29.178Z,14.30
2019-02-09T13:35:34.025Z,13.70
2019-02-09T13:36:38.952Z,15.25
2019-02-09T13:37:43.737Z,13.22
2019-02-09T13:38:48.570Z,14.28
2019-02-09T13:39:53.334Z,14.00
2019-02-09T13:40:58.131Z,14.23
2019-02-09T13:42:02.967Z,14.55
2019-02-09T13:43:07.979Z,14.35
2019-02-09T13:44:12.794Z,14.75
2019-02-09T13:45:20.906Z,14.35
2019-02-09T13:46:25.728Z,13.62
2019-02-09T13:47:30.449Z,14.50
2019-02-09T13:48:35.181Z,13.85
2019-02-09T13:49:39.948Z,14.43
2019-02-09T13:50:44.765Z,14.30
2019-02-09T13:51:49.733Z,14.00
2019-02-09T13:52:54.603Z,13.93
2019-02-09T13:53:59.352Z,15.28
2019-02-09T13:55:04.391Z,15.13
2019-02-09T13:56:09.294Z,14.73
2019-02-09T13:57:14.112Z,15.60
2019-02-09T13:58:18.944Z,14.00
2019-02-09T13:59:24.067Z,14.75
2019-02-09T14:00:29.498Z,15.00
2019-02-09T14:01:34.451Z,15.38